Aeroporto :
LOGIN :

Iscrizione | Disclaimer

   EN    FR    IT 

 










Sommario :    VFR   VFR Marginale   IFR   IFR Intensivo   IFR Molto Intensivo
Visibilità : 
Base nubi : 
>= 8 km
>= 3000ft
5 / 8 km
1000 / 3000 ft
1500m / 5 km
500 / 1000 ft
800 / 1500m
200 / 500 ft
< 800m
< 200 ft
Simboli :   Temporali  Nebbia  Neve Forte  Precipitazioni Forti  Vento > 20 kt
SIGMETs :   Varie  Temporali  Ghiacco  Turbolenza  Onda orograficha  Ceneri Vulcaniche







- Altitudine del aeroporto : 699 ft
- Codice IATA : PAD


EDLP - Paderborn Lippstadt

ULTIMO METAR :
  • 191250Z 03006KT 330V100 9999 SCT060TCU 23/07 Q1004

METARs OBSOLETI :
  • 191220Z VRB04KT CAVOK 22/06 Q1004
  • 191150Z VRB06KT CAVOK 22/06 Q1004
  • 191120Z 03006KT 300V110 9999 FEW049 22/07 Q1004
  • 191050Z VRB06KT CAVOK 22/09 Q1004
  • 191020Z 08007KT 040V130 CAVOK 21/09 Q1004

TAF TAF EDLP
Valido dal 19 a 12 ore il 20 a 12 ore UTC


191100Z 1912/2012 03004KT CAVOK
PROB30
TEMPO 1914/1919 07015G25KT TSRA BKN020CB
TEMPO 2000/2006 2500 BR
PROB30
TEMPO 2003/2007 1200 BR BKN004
PROB30
TEMPO 2011/2012 TSRA BKN020CB
Nessun NOTAM noto per questo aeroporto.



MetMap, La meteo Aeronautica in un colpo d'occhio ! - Copyright ORBIFLY Dicembre 2007 - Disclaimer

ORBIFLY MET'MAP TEAM :

Programmazione e sviluppo : Alexandra Zaïnal
Concezione e sviluppo : Baudouin d'Aumeries
Co-Programmazione e sviluppo : Marc-Olivier Méhu
Supporto tecnico e logistico : Manuel Goepfert
Aiuto per la traduzione : Arnaldo La Scala

Contatto : metmap@orbifly.com




FONTI E CREDITI :

   NOAA